createdAt,value
2022-08-01T00:01:15.698Z,5.15
2022-08-01T00:11:19.145Z,4.70
2022-08-01T00:21:31.216Z,4.40
2022-08-01T00:31:33.372Z,4.50
2022-08-01T00:41:35.425Z,4.47
2022-08-01T00:51:38.361Z,4.35
2022-08-01T01:01:46.571Z,4.40
2022-08-01T01:11:59.799Z,4.60
2022-08-01T01:22:38.688Z,4.70
2022-08-01T01:32:48.899Z,4.45
2022-08-01T01:42:54.242Z,5.05
2022-08-01T01:53:01.331Z,4.60
2022-08-01T02:03:05.867Z,5.00
2022-08-01T02:13:09.961Z,4.88
2022-08-01T02:23:15.018Z,3.95
2022-08-01T02:33:26.073Z,4.35
2022-08-01T02:43:30.007Z,3.90
2022-08-01T02:53:44.004Z,4.20
2022-08-01T03:03:47.647Z,4.10
2022-08-01T03:14:03.024Z,4.50
2022-08-01T03:24:09.881Z,4.80
2022-08-01T03:34:19.076Z,5.37
2022-08-01T03:44:30.372Z,5.50
2022-08-01T03:54:37.341Z,5.13
2022-08-01T04:04:40.583Z,5.97
2022-08-01T04:14:43.823Z,5.90
2022-08-01T04:24:54.472Z,5.17
2022-08-01T04:35:23.438Z,5.70
2022-08-01T04:45:37.458Z,5.50
2022-08-01T04:55:43.450Z,5.45
2022-08-01T05:05:47.854Z,4.85
2022-08-01T05:15:55.176Z,4.85
2022-08-01T05:26:00.924Z,5.50
2022-08-01T05:36:21.838Z,4.45
2022-08-01T05:46:26.177Z,3.60
2022-08-01T05:56:32.471Z,3.47
2022-08-01T06:06:34.601Z,3.65
2022-08-01T06:16:37.208Z,3.20
2022-08-01T06:26:41.743Z,2.50
2022-08-01T06:36:47.455Z,2.30
2022-08-01T06:46:49.587Z,2.08
2022-08-01T06:56:55.094Z,2.50
2022-08-01T07:07:00.560Z,2.70
2022-08-01T07:17:04.919Z,2.90
2022-08-01T07:27:26.121Z,1.92
2022-08-01T07:37:41.971Z,1.70
2022-08-01T07:47:50.919Z,1.95
2022-08-01T07:57:56.572Z,1.58
2022-08-01T08:08:03.539Z,1.65
2022-08-01T08:18:10.869Z,2.08
2022-08-01T08:28:15.154Z,1.60
2022-08-01T08:38:17.218Z,1.23
2022-08-01T08:48:27.809Z,1.27
2022-08-01T08:58:38.716Z,1.60
2022-08-01T09:08:47.926Z,1.42
2022-08-01T09:18:53.553Z,1.77
2022-08-01T09:29:10.600Z,2.92
2022-08-01T09:39:19.436Z,1.27
2022-08-01T09:49:50.698Z,1.80
2022-08-01T09:59:59.104Z,1.80
2022-08-01T10:10:16.367Z,1.40
2022-08-01T10:20:30.611Z,1.50
2022-08-01T10:30:33.353Z,1.52
2022-08-01T10:40:44.206Z,1.48
2022-08-01T10:50:50.334Z,1.73
2022-08-01T11:01:30.419Z,1.63
2022-08-01T11:12:23.276Z,1.88
2022-08-01T11:22:25.912Z,1.75
2022-08-01T11:32:52.578Z,1.42
2022-08-01T11:43:33.920Z,1.50
2022-08-01T11:53:47.740Z,1.50
2022-08-01T12:03:58.491Z,1.60
2022-08-01T12:14:08.285Z,1.90
2022-08-01T12:24:11.429Z,1.60
2022-08-01T12:34:35.361Z,2.00
2022-08-01T12:44:39.887Z,1.63
2022-08-01T12:55:03.995Z,2.00
2022-08-01T13:05:16.045Z,1.90
2022-08-01T13:15:27.439Z,2.08
2022-08-01T13:25:32.424Z,2.10
2022-08-01T13:35:34.497Z,2.78
2022-08-01T13:45:40.035Z,3.28
2022-08-01T13:55:42.801Z,3.08
2022-08-01T14:05:48.724Z,3.47
2022-08-01T14:16:01.413Z,3.10
2022-08-01T14:26:11.695Z,2.80
2022-08-01T14:36:29.446Z,2.92
2022-08-01T14:46:35.422Z,2.28
2022-08-01T14:56:37.536Z,2.55
2022-08-01T15:06:40.503Z,10.10
2022-08-01T15:16:42.785Z,3.50
2022-08-01T15:26:47.302Z,2.50
2022-08-01T15:36:49.431Z,2.88
2022-08-01T15:46:54.060Z,2.53
2022-08-01T15:56:59.050Z,3.00
2022-08-01T16:07:03.786Z,2.60
2022-08-01T16:17:10.632Z,2.35
2022-08-01T16:27:17.072Z,2.50
2022-08-01T16:37:24.684Z,2.50
2022-08-01T16:47:31.227Z,2.70
2022-08-01T16:57:38.870Z,2.90
2022-08-01T17:07:45.568Z,2.45
2022-08-01T17:17:51.466Z,3.08
2022-08-01T17:27:58.254Z,2.72
2022-08-01T17:38:00.685Z,2.95
2022-08-01T17:48:02.892Z,3.00
2022-08-01T17:58:14.722Z,2.90
2022-08-01T18:08:19.185Z,4.07
2022-08-01T18:18:33.240Z,2.97
2022-08-01T18:28:41.931Z,2.90
2022-08-01T18:38:50.239Z,4.60
2022-08-01T18:48:53.633Z,2.47
2022-08-01T18:59:00.599Z,3.10
2022-08-01T19:09:05.446Z,2.85
2022-08-01T19:19:09.798Z,3.00
2022-08-01T19:29:35.447Z,2.63
2022-08-01T19:39:52.571Z,3.10
2022-08-01T19:49:56.919Z,2.88
2022-08-01T20:00:04.935Z,3.40
2022-08-01T20:10:07.917Z,3.60
2022-08-01T20:20:12.646Z,4.07
2022-08-01T20:30:17.417Z,3.65
2022-08-01T20:40:26.704Z,3.22
2022-08-01T20:50:52.841Z,4.30
2022-08-01T21:01:01.899Z,3.55
2022-08-01T21:11:04.840Z,3.75
2022-08-01T21:21:10.847Z,5.22
2022-08-01T21:31:17.625Z,3.50
2022-08-01T21:41:56.387Z,4.38
2022-08-01T21:51:56.674Z,3.03
2022-08-01T22:02:04.660Z,3.78
2022-08-01T22:12:12.526Z,4.00
2022-08-01T22:22:42.478Z,3.63
2022-08-01T22:33:07.423Z,3.60
2022-08-01T22:43:20.261Z,3.35
2022-08-01T22:53:29.806Z,3.75
2022-08-01T23:03:35.837Z,3.53
2022-08-01T23:13:38.044Z,3.65
2022-08-01T23:23:46.874Z,4.13
2022-08-01T23:33:54.149Z,4.10
2022-08-01T23:44:03.464Z,4.10
2022-08-01T23:54:25.752Z,2.90
